Time;durP1;ratioP1;P1;durP2;ratioP2;P2;SDS_P1;SDS_P2;PMS_P1;PMS_P2;Temp;Humidity;BMP_temperature;BMP_pressure;BME280_temperature;BME280_humidity;BME280_pressure;Samples;Min_cycle;Max_cycle;Signal;HPM_P1;HPM_P2
2020/12/05 00:02:23;;;;;;;5.88;3.90;;;;;;;3.40;67.82;99225.63;5033292;28;20034;-84
2020/12/05 00:04:50;;;;;;;7.90;3.92;;;;;;;3.40;68.09;99224.75;5032392;28;20017;-84
2020/12/05 00:07:16;;;;;;;7.25;4.15;;;;;;;3.41;67.71;99229.09;5032763;28;20073;-84
2020/12/05 00:09:42;;;;;;;8.00;4.05;;;;;;;3.41;67.85;99234.34;5032658;28;20121;-87
2020/12/05 00:12:10;;;;;;;7.05;4.57;;;;;;;3.44;67.90;99241.28;5033047;28;20051;-83
2020/12/05 00:14:36;;;;;;;8.95;4.15;;;;;;;3.41;67.95;99247.44;5032575;28;20034;-85
2020/12/05 00:17:03;;;;;;;11.35;5.15;;;;;;;3.37;67.86;99251.00;5028940;28;20045;-85
2020/12/05 00:19:30;;;;;;;7.60;4.20;;;;;;;3.39;67.94;99254.47;5032753;28;20029;-84
2020/12/05 00:21:57;;;;;;;10.55;4.60;;;;;;;3.38;68.26;99252.72;5032862;28;20030;-85
2020/12/05 00:24:25;;;;;;;8.27;4.60;;;;;;;3.39;67.82;99255.31;5032538;28;20025;-84
2020/12/05 00:26:52;;;;;;;6.03;3.92;;;;;;;3.40;67.55;99261.41;5032823;28;20108;-84
2020/12/05 00:29:19;;;;;;;6.60;4.15;;;;;;;3.37;67.83;99266.72;5032775;28;20044;-85
2020/12/05 00:31:50;;;;;;;8.00;4.78;;;;;;;3.35;67.79;99268.47;5032598;28;20389;-85
2020/12/05 00:34:17;;;;;;;5.10;3.97;;;;;;;3.30;67.59;99259.84;5032372;28;20030;-82
2020/12/05 00:36:43;;;;;;;8.30;4.57;;;;;;;3.30;67.52;99275.53;5032554;28;20026;-83
2020/12/05 00:39:10;;;;;;;10.60;4.82;;;;;;;3.26;67.72;99279.94;5029822;28;20040;-83
2020/12/05 00:41:36;;;;;;;9.77;4.13;;;;;;;3.21;67.53;99287.00;5032710;28;20060;-84
2020/12/05 00:44:03;;;;;;;7.18;4.15;;;;;;;3.19;67.64;99300.13;5032398;28;20029;-84
2020/12/05 00:46:30;;;;;;;7.57;3.97;;;;;;;3.14;67.94;99301.97;5032416;28;20022;-83
2020/12/05 00:48:56;;;;;;;7.15;3.58;;;;;;;3.09;67.47;99303.78;5032458;28;20022;-86
2020/12/05 00:51:23;;;;;;;7.82;3.65;;;;;;;3.06;67.62;99307.28;5032122;28;20028;-84
2020/12/05 00:53:49;;;;;;;9.85;5.07;;;;;;;3.02;67.46;99317.84;5032195;28;20131;-84
2020/12/05 00:56:20;;;;;;;7.25;4.57;;;;;;;3.02;67.46;99312.59;5032935;28;20133;-86
2020/12/05 00:58:47;;;;;;;10.35;4.78;;;;;;;2.94;67.54;99320.56;5032460;28;20026;-84
2020/12/05 01:01:14;;;;;;;9.50;4.88;;;;;;;2.89;67.64;99325.84;5032343;28;20022;-84
2020/12/05 01:03:42;;;;;;;11.70;5.22;;;;;;;2.88;67.93;99329.34;5032629;28;20045;-85
2020/12/05 01:06:13;;;;;;;9.27;4.47;;;;;;;2.90;67.78;99334.53;5030826;28;20079;-84
2020/12/05 01:08:41;;;;;;;10.45;5.53;;;;;;;2.84;68.14;99329.38;5031991;28;20083;-84
2020/12/05 01:11:17;;;;;;;8.88;4.65;;;;;;;2.87;68.17;99340.69;5034062;28;20017;-85
2020/12/05 01:13:44;;;;;;;7.30;4.93;;;;;;;2.79;68.24;99341.66;5025146;28;20030;-84
2020/12/05 01:16:12;;;;;;;6.43;4.53;;;;;;;2.77;68.18;99344.31;5033828;28;20029;-87
2020/12/05 01:18:40;;;;;;;10.25;4.88;;;;;;;2.77;68.13;99354.78;5035386;28;20447;-85
2020/12/05 01:21:09;;;;;;;8.00;5.63;;;;;;;2.75;68.15;99351.28;5035664;28;20025;-84
2020/12/05 01:23:36;;;;;;;8.98;5.70;;;;;;;2.74;68.51;99365.25;5033894;28;20040;-85
2020/12/05 01:26:04;;;;;;;11.57;5.88;;;;;;;2.76;68.73;99366.09;5035009;28;20025;-84
2020/12/05 01:28:31;;;;;;;8.43;5.50;;;;;;;2.79;68.56;99367.81;5035060;28;20430;-83
2020/12/05 01:30:58;;;;;;;10.05;5.82;;;;;;;2.80;68.62;99366.94;5035260;28;20021;-84
2020/12/05 01:33:24;;;;;;;9.05;5.88;;;;;;;2.80;68.76;99367.78;5034916;28;20550;-83
2020/12/05 01:35:51;;;;;;;9.07;5.13;;;;;;;2.81;68.82;99366.06;5031985;28;20117;-84
2020/12/05 01:38:18;;;;;;;10.05;6.18;;;;;;;2.85;68.77;99371.22;5035046;28;20033;-84
2020/12/05 01:40:54;;;;;;;15.32;7.95;;;;;;;2.91;68.79;99373.75;5034836;28;20413;-87
2020/12/05 01:43:21;;;;;;;13.15;7.35;;;;;;;2.88;68.72;99365.97;5034828;28;20025;-84
2020/12/05 01:45:49;;;;;;;12.38;7.75;;;;;;;2.88;68.84;99371.19;5034955;28;20400;-84
2020/12/05 01:48:18;;;;;;;11.98;7.40;;;;;;;2.90;68.65;99372.06;5035067;28;20491;-84
2020/12/05 01:50:46;;;;;;;12.82;8.13;;;;;;;2.90;68.71;99371.16;5032793;28;20044;-86
2020/12/05 01:53:14;;;;;;;16.17;8.45;;;;;;;2.91;68.59;99376.38;5035192;28;20033;-84
2020/12/05 01:55:45;;;;;;;12.40;7.82;;;;;;;2.89;68.90;99375.53;5035061;28;20025;-84
2020/12/05 01:58:13;;;;;;;12.63;7.88;;;;;;;2.87;69.13;99384.31;5035151;28;20032;-85
2020/12/05 02:00:40;;;;;;;12.93;8.65;;;;;;;2.90;69.08;99384.25;5035486;28;20091;-87
2020/12/05 02:03:08;;;;;;;16.15;8.32;;;;;;;2.95;68.93;99384.19;5034921;28;20032;-86
2020/12/05 02:09:01;;;;;;;13.68;6.80;;;;;;;2.96;68.59;99384.19;5082367;27;20417;-85
2020/12/05 02:11:33;;;;;;;13.35;7.03;;;;;;;2.94;68.72;99377.22;5068666;28;20068;-84
2020/12/05 02:14:04;;;;;;;14.25;7.32;;;;;;;2.91;68.80;99373.75;5070224;28;20059;-84
2020/12/05 02:16:31;;;;;;;9.77;6.43;;;;;;;2.89;68.48;99370.31;5051301;28;20041;-84
2020/12/05 02:19:00;;;;;;;13.55;7.88;;;;;;;2.89;68.31;99374.66;5049647;28;20499;-84
2020/12/05 02:21:29;;;;;;;12.70;7.07;;;;;;;2.89;68.51;99385.13;5048500;28;20045;-87
2020/12/05 02:23:57;;;;;;;11.98;7.60;;;;;;;2.88;68.57;99386.03;5049809;28;20032;-84
2020/12/05 02:26:26;;;;;;;10.40;6.25;;;;;;;2.84;68.61;99382.59;5048367;28;20030;-84
2020/12/05 02:28:52;;;;;;;15.48;6.82;;;;;;;2.82;68.80;99389.56;5048500;28;20482;-84
2020/12/05 02:31:19;;;;;;;11.90;7.13;;;;;;;2.83;68.42;99388.69;5049639;28;20040;-84
2020/12/05 02:33:45;;;;;;;10.63;6.63;;;;;;;2.83;68.37;99398.28;5049223;28;20049;-85
2020/12/05 02:36:13;;;;;;;9.27;6.90;;;;;;;2.81;68.43;99398.31;5049533;28;20083;-84
2020/12/05 02:38:54;;;;;;;14.82;6.75;;;;;;;2.87;68.42;99398.22;5049640;28;20026;-83
2020/12/05 02:41:23;;;;;;;9.38;6.88;;;;;;;2.83;68.19;99401.78;5048276;28;20574;-84
2020/12/05 02:43:49;;;;;;;10.05;6.47;;;;;;;2.81;68.00;99395.69;5045810;28;20422;-85
2020/12/05 02:46:16;;;;;;;9.82;6.90;;;;;;;2.80;68.02;99385.25;5049108;28;20036;-84
2020/12/05 02:48:42;;;;;;;14.90;6.63;;;;;;;2.77;68.02;99388.78;5040768;28;20022;-84
2020/12/05 02:51:09;;;;;;;11.20;7.47;;;;;;;2.73;68.19;99380.09;5049198;28;20435;-84
2020/12/05 02:53:36;;;;;;;9.85;6.43;;;;;;;2.70;68.07;99389.72;5049361;28;20388;-84
2020/12/05 02:56:03;;;;;;;10.63;6.68;;;;;;;2.66;68.51;99383.66;5045704;28;20029;-83
2020/12/05 02:58:29;;;;;;;9.77;6.47;;;;;;;2.63;68.19;99382.81;5049230;28;20476;-83
2020/12/05 03:00:56;;;;;;;9.00;5.75;;;;;;;2.61;68.21;99384.59;5049035;28;20135;-83
2020/12/05 03:03:22;;;;;;;9.85;5.93;;;;;;;2.57;68.08;99383.75;5049357;28;20104;-83
2020/12/05 03:05:49;;;;;;;9.70;5.85;;;;;;;2.55;68.18;99386.38;5048779;28;20033;-84
2020/12/05 03:08:15;;;;;;;11.25;5.60;;;;;;;2.52;68.17;99383.81;5048760;28;20112;-84
2020/12/05 03:10:42;;;;;;;9.35;5.63;;;;;;;2.51;68.25;99384.69;5049079;28;20487;-83
2020/12/05 03:13:08;;;;;;;7.85;5.80;;;;;;;2.50;68.34;99390.78;5048760;28;20056;-83
2020/12/05 03:15:34;;;;;;;8.45;5.97;;;;;;;2.50;68.33;99390.78;5049282;28;20025;-84
2020/12/05 03:18:01;;;;;;;12.27;6.70;;;;;;;2.51;68.47;99395.16;5045790;28;20025;-83
2020/12/05 03:20:27;;;;;;;9.02;6.20;;;;;;;2.51;68.28;99394.28;5035453;28;20060;-84
2020/12/05 03:22:53;;;;;;;12.68;5.53;;;;;;;2.50;68.42;99398.63;5035393;28;20129;-84
2020/12/05 03:25:20;;;;;;;13.68;5.88;;;;;;;2.50;68.32;99403.88;5035220;28;20022;-85
2020/12/05 03:27:46;;;;;;;11.27;6.15;;;;;;;2.49;68.41;99398.66;5034889;28;20076;-83
2020/12/05 03:30:14;;;;;;;9.05;6.85;;;;;;;2.49;68.51;99409.13;5035344;28;20029;-84
2020/12/05 03:32:42;;;;;;;10.07;6.07;;;;;;;2.49;68.40;99403.88;5033916;28;20432;-84
2020/12/05 03:35:09;;;;;;;11.10;6.47;;;;;;;2.49;68.45;99402.13;5035036;28;20084;-83
2020/12/05 03:37:36;;;;;;;13.55;6.38;;;;;;;2.48;68.39;99395.19;5035205;28;20059;-82
2020/12/05 03:40:04;;;;;;;9.00;6.47;;;;;;;2.47;68.37;99403.03;5035161;28;20021;-83
2020/12/05 03:42:31;;;;;;;8.55;5.43;;;;;;;2.46;68.23;99398.69;5034852;28;20029;-83
2020/12/05 03:44:57;;;;;;;8.88;6.05;;;;;;;2.43;68.17;99402.22;5034881;28;20120;-84
2020/12/05 03:47:24;;;;;;;14.45;5.95;;;;;;;2.40;68.18;99397.00;5034660;28;20049;-85
2020/12/05 03:49:50;;;;;;;6.80;5.05;;;;;;;2.36;68.16;99405.75;5035176;28;20029;-87
2020/12/05 03:52:17;;;;;;;10.68;6.80;;;;;;;2.36;68.11;99406.63;5033735;28;20029;-83
2020/12/05 03:54:43;;;;;;;8.95;5.65;;;;;;;2.36;68.19;99400.53;5034875;28;20151;-82
2020/12/05 03:57:10;;;;;;;8.20;6.07;;;;;;;2.36;68.26;99405.75;5034239;28;20401;-81
2020/12/05 03:59:37;;;;;;;9.25;6.15;;;;;;;2.35;68.19;99404.88;5034650;28;20427;-84
2020/12/05 04:02:03;;;;;;;11.20;6.03;;;;;;;2.36;68.21;99403.16;5034935;28;20021;-83
2020/12/05 04:04:29;;;;;;;11.27;7.22;;;;;;;2.36;68.38;99405.75;5034754;28;20037;-82
2020/12/05 04:06:56;;;;;;;13.43;8.05;;;;;;;2.38;68.25;99414.44;5034461;28;20037;-83
2020/12/05 04:09:23;;;;;;;12.30;7.78;;;;;;;2.40;68.44;99410.06;5034204;28;20029;-83
2020/12/05 04:11:49;;;;;;;10.68;7.45;;;;;;;2.40;68.51;99408.31;5034478;28;20045;-84
2020/12/05 04:14:15;;;;;;;11.38;7.78;;;;;;;2.42;68.35;99411.78;5033302;28;20415;-85
2020/12/05 04:16:42;;;;;;;13.07;8.20;;;;;;;2.42;68.26;99406.56;5034516;28;20477;-82
2020/12/05 04:19:09;;;;;;;14.77;8.80;;;;;;;2.43;68.29;99413.53;5034568;28;20038;-82
2020/12/05 04:21:35;;;;;;;15.43;9.38;;;;;;;2.42;68.25;99405.72;5034532;28;20026;-84
2020/12/05 04:24:01;;;;;;;14.52;7.78;;;;;;;2.42;68.17;99408.31;5034678;28;20026;-83
2020/12/05 04:26:28;;;;;;;16.83;8.45;;;;;;;2.39;68.17;99405.72;5034304;28;20033;-83
2020/12/05 04:28:54;;;;;;;12.98;8.48;;;;;;;2.38;68.26;99404.88;5034304;28;20042;-82
2020/12/05 04:31:20;;;;;;;13.18;7.95;;;;;;;2.37;68.19;99415.34;5030337;28;20457;-83
2020/12/05 04:33:47;;;;;;;15.40;9.30;;;;;;;2.36;68.10;99409.22;5034024;28;20388;-82
2020/12/05 04:36:13;;;;;;;20.75;12.23;;;;;;;2.37;68.26;99407.50;5032860;28;20025;-83
2020/12/05 04:38:40;;;;;;;15.07;9.75;;;;;;;2.38;68.38;99410.09;5029478;28;20101;-83
2020/12/05 04:41:06;;;;;;;17.45;10.13;;;;;;;2.37;68.34;99418.81;5025352;28;20025;-83
2020/12/05 04:43:35;;;;;;;15.35;9.25;;;;;;;2.36;68.42;99424.06;5029892;28;20025;-85
2020/12/05 04:46:03;;;;;;;13.85;8.00;;;;;;;2.33;68.38;99418.84;5034185;28;20017;-83
2020/12/05 04:48:31;;;;;;;13.23;7.43;;;;;;;2.30;68.34;99422.34;5033913;28;20030;-83
2020/12/05 04:51:02;;;;;;;10.48;6.65;;;;;;;2.25;68.33;99422.41;5033573;28;20025;-82
2020/12/05 04:53:30;;;;;;;9.98;6.93;;;;;;;2.20;68.32;99437.25;5033872;28;20029;-91
2020/12/05 04:55:59;;;;;;;11.50;7.15;;;;;;;2.17;68.25;99437.28;5033335;28;20029;-82
2020/12/05 04:58:26;;;;;;;15.07;6.55;;;;;;;2.10;68.07;99440.81;5031448;28;20060;-83
2020/12/05 05:00:57;;;;;;;7.28;5.25;;;;;;;2.09;68.09;99439.97;5031940;28;20392;-82
2020/12/05 05:03:25;;;;;;;8.23;5.60;;;;;;;2.06;68.32;99433.91;5031574;28;20030;-84
2020/12/05 05:05:55;;;;;;;8.32;5.13;;;;;;;2.05;68.23;99437.38;5033226;28;20381;-82
2020/12/05 05:08:24;;;;;;;9.18;5.65;;;;;;;2.04;68.31;99435.66;5033538;28;20366;-82
2020/12/05 05:11:07;;;;;;;15.15;6.70;;;;;;;2.07;68.37;99446.09;5033483;28;20372;-84
2020/12/05 05:13:48;;;;;;;8.45;5.22;;;;;;;2.07;68.08;99446.09;5022730;28;20014;-84
2020/12/05 05:16:15;;;;;;;8.57;6.38;;;;;;;1.97;68.27;99439.19;5033020;28;20036;-83
2020/12/05 05:18:41;;;;;;;10.13;5.63;;;;;;;1.97;68.19;99441.78;5033577;28;20465;-84
2020/12/05 05:21:08;;;;;;;8.85;5.75;;;;;;;1.97;68.37;99447.03;5034428;28;20039;-82
2020/12/05 05:23:35;;;;;;;11.82;6.35;;;;;;;1.98;68.10;99446.16;5036011;28;20021;-82
2020/12/05 05:26:04;;;;;;;12.07;5.85;;;;;;;1.97;68.07;99442.69;5035492;28;20480;-83
2020/12/05 05:31:24;;;;;;;11.50;6.85;;;;;;;1.99;68.21;99437.44;5114163;27;20359;-86
2020/12/05 05:33:52;;;;;;;8.60;6.38;;;;;;;1.99;68.13;99432.22;5110596;28;20106;-82
2020/12/05 05:36:28;;;;;;;10.57;6.30;;;;;;;2.03;68.38;99444.38;5110538;28;20028;-84
2020/12/05 05:39:03;;;;;;;9.23;6.53;;;;;;;2.00;68.28;99444.41;5110386;28;20057;-84
2020/12/05 05:41:30;;;;;;;13.70;7.13;;;;;;;1.98;68.20;99446.16;5109118;28;20024;-83
2020/12/05 05:44:03;;;;;;;13.45;6.88;;;;;;;1.99;68.08;99450.50;5107597;28;20107;-83
2020/12/05 05:46:32;;;;;;;9.88;6.65;;;;;;;1.97;68.15;99454.84;5110268;28;20424;-84
2020/12/05 05:49:00;;;;;;;9.05;6.07;;;;;;;1.94;68.09;99461.84;5110103;28;20398;-86
2020/12/05 05:51:48;;;;;;;12.63;7.38;;;;;;;2.04;68.16;99461.78;5109974;28;20030;-85
2020/12/05 05:54:28;;;;;;;12.80;6.95;;;;;;;2.01;68.26;99464.44;5110098;28;20023;-84
2020/12/05 05:59:40;;;;;;;10.85;6.93;;;;;;;2.00;68.46;99470.53;5083570;27;20751;-83
2020/12/05 06:02:10;;;;;;;10.65;5.70;;;;;;;2.00;68.67;99473.13;5064872;28;20448;-83
2020/12/05 06:07:26;;;;;;;12.20;7.90;;;;;;;2.11;68.95;99473.91;5060221;27;20391;-83
2020/12/05 06:09:54;;;;;;;11.57;6.30;;;;;;;2.15;68.92;99495.69;5056882;28;20104;-85
2020/12/05 06:12:24;;;;;;;11.75;7.80;;;;;;;2.20;69.18;99499.97;5067116;28;20029;-84
2020/12/05 06:14:54;;;;;;;11.63;7.15;;;;;;;2.24;69.18;99500.81;5058990;28;20033;-83
2020/12/05 06:17:22;;;;;;;13.75;7.75;;;;;;;2.30;69.28;99499.91;5058518;28;20060;-86
2020/12/05 06:19:50;;;;;;;12.25;6.97;;;;;;;2.35;69.27;99508.59;5052487;28;20095;-84
2020/12/05 06:25:23;;;;;;;12.63;7.65;;;;;;;2.44;69.71;99508.50;5081530;28;20776;-83
2020/12/05 06:27:57;;;;;;;12.48;8.48;;;;;;;2.53;69.71;99528.47;5063594;28;20040;-83
2020/12/05 06:30:23;;;;;;;11.40;7.57;;;;;;;2.53;69.54;99526.75;5053138;28;20432;-83
2020/12/05 06:32:50;;;;;;;15.13;9.80;;;;;;;2.55;69.62;99524.97;5059956;28;20119;-83
2020/12/05 06:38:16;;;;;;;12.20;7.97;;;;;;;2.66;69.59;99521.41;5099013;27;20407;-82
2020/12/05 06:40:44;;;;;;;13.75;8.50;;;;;;;2.64;69.50;99531.88;5099918;28;20052;-85
2020/12/05 06:43:12;;;;;;;12.77;6.55;;;;;;;2.66;69.52;99531.88;5093115;28;20035;-83
2020/12/05 06:45:40;;;;;;;12.60;7.55;;;;;;;2.65;69.46;99528.38;5093678;28;20028;-83
2020/12/05 06:50:52;;;;;;;10.70;7.70;;;;;;;2.64;69.31;99542.34;5071490;27;20398;-83
2020/12/05 06:56:16;;;;;;;12.95;7.45;;;;;;;2.69;69.58;99544.91;5113093;27;20348;-83
2020/12/05 06:58:54;;;;;;;11.88;7.20;;;;;;;2.65;69.76;99548.44;5110635;28;20039;-83
2020/12/05 07:01:29;;;;;;;9.73;6.20;;;;;;;2.72;69.66;99560.56;5097832;28;20086;-82
2020/12/05 07:04:15;;;;;;;17.20;8.75;;;;;;;2.69;70.01;99560.59;5085790;28;20033;-82
2020/12/05 07:06:41;;;;;;;13.35;7.30;;;;;;;2.71;69.95;99553.59;5081402;28;20029;-82
2020/12/05 07:09:09;;;;;;;11.50;7.30;;;;;;;2.74;70.00;99561.41;5079873;28;20078;-82
2020/12/05 07:11:36;;;;;;;10.10;6.90;;;;;;;2.78;70.13;99564.88;5083766;28;20115;-87
2020/12/05 07:14:03;;;;;;;14.15;8.40;;;;;;;2.82;70.18;99567.47;5076430;28;20036;-82
2020/12/05 07:16:29;;;;;;;11.70;7.50;;;;;;;2.86;70.20;99579.63;5082629;28;20035;-84
2020/12/05 07:18:59;;;;;;;13.32;8.02;;;;;;;2.92;70.23;99583.94;5076978;28;20020;-82
2020/12/05 07:21:28;;;;;;;10.38;7.53;;;;;;;2.95;69.96;99593.50;5088636;28;21364;-83
2020/12/05 07:23:55;;;;;;;9.88;6.35;;;;;;;2.94;70.36;99603.13;5087991;28;20105;-87
2020/12/05 07:26:22;;;;;;;12.20;8.48;;;;;;;2.95;70.24;99604.84;5082799;28;20031;-83
2020/12/05 07:28:51;;;;;;;11.65;8.63;;;;;;;2.99;70.24;99606.56;5075196;28;20025;-84
2020/12/05 07:31:18;;;;;;;13.00;7.85;;;;;;;3.00;70.24;99612.66;5081594;28;20024;-83
2020/12/05 07:33:47;;;;;;;15.85;9.35;;;;;;;3.03;70.39;99615.25;5103779;28;20035;-92
2020/12/05 07:36:15;;;;;;;13.23;8.93;;;;;;;3.03;70.30;99623.09;5102486;28;20115;-83
2020/12/05 07:38:43;;;;;;;16.20;8.55;;;;;;;3.07;70.24;99623.03;5109919;28;20390;-83
2020/12/05 07:43:57;;;;;;;13.40;7.90;;;;;;;3.12;70.45;99643.09;5072061;28;20150;-86
2020/12/05 07:46:25;;;;;;;13.32;8.95;;;;;;;3.15;70.31;99638.66;5061938;28;20040;-85
2020/12/05 07:48:51;;;;;;;12.38;8.07;;;;;;;3.19;70.23;99644.75;5045565;28;20590;-85
2020/12/05 07:51:18;;;;;;;12.68;8.95;;;;;;;3.17;70.42;99655.25;5046164;28;20037;-84
2020/12/05 07:53:46;;;;;;;12.43;8.13;;;;;;;3.20;70.46;99656.97;5049475;28;20029;-85
2020/12/05 07:58:57;;;;;;;12.18;9.07;;;;;;;3.27;70.51;99669.13;5074944;27;20420;-84
2020/12/05 08:01:49;;;;;;;10.50;8.55;;;;;;;3.44;70.69;99675.94;5067500;28;20087;-85
2020/12/05 08:07:28;;;;;;;14.20;9.27;;;;;;;3.52;70.22;99680.22;5094972;27;20360;-83
2020/12/05 08:09:55;;;;;;;14.90;8.27;;;;;;;3.55;70.40;99679.31;5103397;28;20475;-84
2020/12/05 08:15:32;;;;;;;13.48;8.50;;;;;;;3.55;69.85;99682.81;5083842;27;20175;-83
2020/12/05 08:18:01;;;;;;;13.82;8.18;;;;;;;3.53;69.70;99691.56;5069375;28;20585;-84
2020/12/05 08:20:28;;;;;;;13.27;8.40;;;;;;;3.56;70.04;99697.66;5069779;28;20029;-85
2020/12/05 08:22:54;;;;;;;13.07;8.82;;;;;;;3.64;70.08;99699.31;5067546;28;20446;-84
2020/12/05 08:25:25;;;;;;;16.55;8.75;;;;;;;3.72;70.30;99702.72;5067540;28;20060;-85
2020/12/05 08:27:52;;;;;;;12.32;7.93;;;;;;;3.78;69.89;99701.81;5065489;28;20041;-88
2020/12/05 08:30:19;;;;;;;12.63;8.55;;;;;;;3.79;69.49;99699.16;5060312;28;20036;-89
2020/12/05 08:32:45;;;;;;;11.27;8.25;;;;;;;3.79;69.46;99711.38;5058066;28;20119;-89
2020/12/05 08:35:14;;;;;;;10.52;7.35;;;;;;;3.76;69.66;99714.06;5053329;28;20040;-91
2020/12/05 08:37:43;;;;;;;12.00;8.00;;;;;;;3.77;69.17;99713.16;5051382;28;20079;-86
2020/12/05 08:40:16;;;;;;;12.88;7.85;;;;;;;3.80;69.46;99718.38;5052162;28;20096;-84
2020/12/05 08:42:47;;;;;;;17.65;10.65;;;;;;;3.73;69.74;99717.56;5058713;28;20052;-88
2020/12/05 08:45:16;;;;;;;19.00;11.35;;;;;;;3.73;69.52;99720.19;5053339;28;20025;-83
2020/12/05 08:47:45;;;;;;;17.00;10.15;;;;;;;3.73;69.29;99714.94;5056702;28;20037;-87
2020/12/05 08:50:26;;;;;;;17.65;9.32;;;;;;;3.81;69.10;99718.34;5056811;28;20021;-87
2020/12/05 08:52:56;;;;;;;12.75;8.43;;;;;;;3.77;69.27;99715.78;5052430;28;20036;-85
2020/12/05 08:55:24;;;;;;;14.27;9.73;;;;;;;3.77;69.48;99723.66;5049746;28;20028;-84
2020/12/05 08:58:07;;;;;;;12.65;8.93;;;;;;;3.88;69.28;99717.41;5051622;28;20187;-84
2020/12/05 09:00:35;;;;;;;10.93;8.93;;;;;;;3.84;69.36;99718.31;5054129;28;20087;-83
2020/12/05 09:03:03;;;;;;;14.68;9.40;;;;;;;3.85;69.03;99725.31;5051804;28;20116;-83
2020/12/05 09:05:30;;;;;;;15.75;9.18;;;;;;;3.85;69.22;99729.66;5052608;28;20112;-84
2020/12/05 09:07:59;;;;;;;14.00;9.30;;;;;;;3.88;69.55;99730.50;5061609;28;20029;-96
2020/12/05 09:10:27;;;;;;;20.02;9.27;;;;;;;3.92;69.55;99733.97;5069882;28;20085;-84
2020/12/05 09:13:03;;;;;;;14.93;9.68;;;;;;;3.95;69.21;99733.94;5064289;28;20032;-84
2020/12/05 09:15:29;;;;;;;13.25;9.32;;;;;;;4.00;69.35;99744.34;5055410;28;20041;-84
2020/12/05 09:17:57;;;;;;;19.35;10.50;;;;;;;4.04;69.26;99751.31;5055133;28;20017;-85
2020/12/05 09:20:23;;;;;;;42.40;23.40;;;;;;;4.07;69.26;99750.41;5050237;28;20026;-85
2020/12/05 09:22:53;;;;;;;19.38;11.95;;;;;;;4.13;69.31;99747.72;5051393;28;20064;-86
2020/12/05 09:25:36;;;;;;;22.58;11.60;;;;;;;4.23;69.60;99762.47;5047816;28;20090;-85
2020/12/05 09:28:09;;;;;;;20.15;10.95;;;;;;;4.24;69.38;99758.97;5038269;28;20033;-85
2020/12/05 09:30:37;;;;;;;21.45;11.95;;;;;;;4.28;69.15;99765.03;5038958;28;20053;-85
2020/12/05 09:33:12;;;;;;;16.70;10.15;;;;;;;4.42;69.19;99770.13;5039993;28;20100;-86
2020/12/05 09:35:38;;;;;;;19.50;10.85;;;;;;;4.41;68.95;99765.75;5038013;28;20156;-85
2020/12/05 09:38:05;;;;;;;16.92;10.27;;;;;;;4.50;68.98;99763.88;5043104;28;20040;-85
2020/12/05 09:40:32;;;;;;;14.15;9.55;;;;;;;4.58;68.45;99773.41;5041374;28;20024;-85
2020/12/05 09:42:59;;;;;;;13.93;10.82;;;;;;;4.66;68.43;99772.44;5036400;28;20033;-84
2020/12/05 09:45:26;;;;;;;15.02;9.77;;;;;;;4.73;68.07;99781.09;5035340;28;20033;-85
2020/12/05 09:47:52;;;;;;;16.25;10.25;;;;;;;4.77;68.39;99776.66;5040586;28;20111;-85
2020/12/05 09:50:18;;;;;;;16.20;10.20;;;;;;;4.82;68.58;99788.84;5040565;28;20497;-85
2020/12/05 09:52:45;;;;;;;15.52;10.07;;;;;;;4.91;68.21;99789.59;5039677;28;20164;-85
2020/12/05 09:55:12;;;;;;;13.35;10.05;;;;;;;4.96;68.03;99786.03;5037109;28;20025;-85
2020/12/05 09:57:40;;;;;;;14.30;10.48;;;;;;;5.04;68.30;99788.53;5036518;28;20112;-84
2020/12/05 10:00:09;;;;;;;16.60;11.23;;;;;;;5.12;68.27;99793.66;5037522;28;20452;-84
2020/12/05 10:02:37;;;;;;;15.32;10.05;;;;;;;5.17;67.94;99795.34;5036207;28;20072;-83
2020/12/05 10:05:05;;;;;;;14.20;9.65;;;;;;;5.25;67.56;99791.75;5036596;28;20018;-85
2020/12/05 10:07:31;;;;;;;14.20;10.20;;;;;;;5.29;67.48;99794.28;5036957;28;20025;-85
2020/12/05 10:09:57;;;;;;;16.63;10.68;;;;;;;5.40;67.08;99790.66;5039802;28;20021;-84
2020/12/05 10:12:23;;;;;;;14.13;9.50;;;;;;;5.43;67.56;99790.59;5039499;28;20028;-85
2020/12/05 10:14:49;;;;;;;13.57;9.48;;;;;;;5.45;68.02;99791.44;5041970;28;20029;-85
2020/12/05 10:17:16;;;;;;;12.57;8.73;;;;;;;5.53;68.00;99794.78;5037403;28;20121;-84
2020/12/05 10:19:42;;;;;;;14.00;9.68;;;;;;;5.63;67.49;99787.63;5037864;28;20084;-84
2020/12/05 10:22:08;;;;;;;15.68;9.55;;;;;;;5.69;67.19;99782.28;5042211;28;20029;-85
2020/12/05 10:24:35;;;;;;;14.30;10.32;;;;;;;5.78;66.84;99790.00;5052534;28;20032;-84
2020/12/05 10:27:01;;;;;;;20.20;10.93;;;;;;;5.83;66.85;99777.66;5054092;28;20033;-84
2020/12/05 10:29:27;;;;;;;15.65;9.13;;;;;;;5.94;66.89;99776.59;5054563;28;20030;-91
2020/12/05 10:31:54;;;;;;;12.80;9.02;;;;;;;5.92;67.28;99781.88;5055329;28;20127;-87
2020/12/05 10:34:21;;;;;;;14.13;9.27;;;;;;;6.00;67.00;99776.50;5053798;28;20040;-86
2020/12/05 10:36:48;;;;;;;15.95;10.02;;;;;;;6.10;66.83;99775.44;5052115;28;20495;-86
2020/12/05 10:39:15;;;;;;;12.60;9.52;;;;;;;6.13;67.05;99778.03;5041651;28;20037;-87
2020/12/05 10:41:42;;;;;;;14.32;9.40;;;;;;;6.22;66.71;99779.59;5046697;28;20044;-81
2020/12/05 10:44:10;;;;;;;11.02;8.10;;;;;;;6.28;67.06;99775.97;5043172;28;20033;-83
2020/12/05 10:46:48;;;;;;;11.95;7.75;;;;;;;6.44;66.89;99769.53;5038636;23;20042;-89
2020/12/05 10:49:15;;;;;;;11.13;8.00;;;;;;;6.40;67.03;99775.72;5001074;28;20042;-83
2020/12/05 10:51:41;;;;;;;11.27;8.35;;;;;;;6.40;67.25;99775.72;4997430;28;20015;-82
2020/12/05 10:54:09;;;;;;;12.55;9.10;;;;;;;6.50;67.12;99783.47;4995195;28;20030;-81
2020/12/05 10:56:38;;;;;;;9.48;6.72;;;;;;;6.58;67.18;99776.25;4986737;28;20026;-82
2020/12/05 10:59:06;;;;;;;11.52;6.03;;;;;;;6.63;66.88;99777.06;4993334;28;20029;-81
2020/12/05 11:01:35;;;;;;;10.55;6.75;;;;;;;6.76;66.69;99783.75;5002426;28;20481;-81
2020/12/05 11:04:01;;;;;;;7.22;5.55;;;;;;;6.80;66.26;99782.81;5008078;28;20093;-80
2020/12/05 11:06:29;;;;;;;7.18;5.18;;;;;;;6.93;66.69;99782.56;5009506;28;20026;-82
2020/12/05 11:08:56;;;;;;;10.80;5.65;;;;;;;7.05;66.88;99779.66;5011812;28;20036;-81
2020/12/05 11:11:24;;;;;;;7.70;4.97;;;;;;;7.09;66.19;99786.56;5008364;28;20100;-81
2020/12/05 11:13:50;;;;;;;9.25;5.95;;;;;;;7.15;66.08;99785.56;5011968;28;20049;-81
2020/12/05 11:16:19;;;;;;;8.05;5.05;;;;;;;7.13;66.20;99798.75;5009395;28;20117;-82
2020/12/05 11:18:48;;;;;;;5.68;4.70;;;;;;;7.21;66.26;99800.38;5017888;28;20030;-88
2020/12/05 11:21:14;;;;;;;5.93;4.53;;;;;;;7.26;66.26;99804.63;5011490;28;20121;-90
2020/12/05 11:23:40;;;;;;;6.40;4.60;;;;;;;7.32;65.90;99808.88;5012356;28;20121;-89
2020/12/05 11:26:08;;;;;;;7.35;4.45;;;;;;;7.38;65.86;99802.63;5005219;28;20037;-91
2020/12/05 11:28:34;;;;;;;6.50;4.50;;;;;;;7.37;64.14;99800.88;5000219;28;20068;-89
2020/12/05 11:31:00;;;;;;;6.80;4.50;;;;;;;7.36;64.88;99807.91;5000286;28;20041;-87
2020/12/05 11:33:26;;;;;;;7.38;4.57;;;;;;;7.40;64.86;99812.22;5001176;28;20034;-87
2020/12/05 11:35:59;;;;;;;6.10;4.20;;;;;;;7.54;63.73;99814.53;5013088;23;20094;-90
2020/12/05 11:38:25;;;;;;;;;;;;;;;7.60;63.29;99811.72;5011143;28;20485;-90
2020/12/05 11:40:51;;;;;;;7.72;4.70;;;;;;;7.57;64.79;99818.84;5010105;28;19921;-88
2020/12/05 11:43:18;;;;;;;8.02;4.75;;;;;;;7.56;64.81;99825.91;5011700;28;20184;-89
2020/12/05 11:45:45;;;;;;;6.93;4.07;;;;;;;7.53;62.70;99839.13;5013176;28;20391;-87
2020/12/05 11:48:11;;;;;;;4.22;3.75;;;;;;;7.47;64.23;99834.00;5007652;28;20030;-83
2020/12/05 11:50:45;;;;;;;34.22;17.25;;;;;;;7.54;64.41;99837.34;5010489;28;20029;-86
2020/12/05 11:53:11;;;;;;;9.15;5.90;;;;;;;7.51;63.53;99845.34;5009439;28;20037;-85
2020/12/05 11:55:38;;;;;;;7.95;3.92;;;;;;;7.48;63.31;99848.03;5009504;28;20030;-83
2020/12/05 11:58:05;;;;;;;7.53;4.07;;;;;;;7.62;63.99;99843.31;5010013;28;20485;-90
2020/12/05 12:00:31;;;;;;;7.80;4.15;;;;;;;7.49;63.97;99848.03;5002443;28;20032;-85
2020/12/05 12:02:57;;;;;;;5.68;3.70;;;;;;;7.63;64.03;99834.50;5005411;28;20503;-84
2020/12/05 12:05:23;;;;;;;6.65;3.97;;;;;;;7.63;63.99;99831.88;5007370;28;20489;-86
2020/12/05 12:07:50;;;;;;;8.20;3.97;;;;;;;7.63;63.80;99829.25;5013380;28;20088;-86
2020/12/05 12:10:17;;;;;;;6.00;3.80;;;;;;;7.72;63.71;99828.16;5013080;28;20033;-86
2020/12/05 12:12:43;;;;;;;5.72;3.67;;;;;;;7.75;62.91;99839.50;5013136;28;20029;-85
2020/12/05 12:15:14;;;;;;;6.88;3.90;;;;;;;7.60;63.25;99840.72;5012807;28;20476;-85
2020/12/05 12:17:41;;;;;;;5.82;3.72;;;;;;;7.79;61.97;99832.38;5028072;23;20076;-91